sensor_id;sensor_type;location;lat;lon;timestamp;P1;durP1;ratioP1;P2;durP2;ratioP2
45314;SDS011;31051;51.540;5.852;2023-08-24T00:02:11;5.8;;;4.4;;
45314;SDS011;31051;51.540;5.852;2023-08-24T00:15:10;5.9;;;4.7;;
45314;SDS011;31051;51.540;5.852;2023-08-24T00:28:09;5.6;;;4.8;;
45314;SDS011;31051;51.540;5.852;2023-08-24T00:41:08;6.1;;;5.4;;
45314;SDS011;31051;51.540;5.852;2023-08-24T00:53:57;5.9;;;5.0;;
45314;SDS011;31051;51.540;5.852;2023-08-24T01:06:55;7.2;;;5.7;;
45314;SDS011;31051;51.540;5.852;2023-08-24T01:19:45;5.5;;;5.0;;
45314;SDS011;31051;51.540;5.852;2023-08-24T01:32:44;6.0;;;5.1;;
45314;SDS011;31051;51.540;5.852;2023-08-24T01:45:43;5.8;;;5.2;;
45314;SDS011;31051;51.540;5.852;2023-08-24T01:58:43;8.1;;;5.8;;
45314;SDS011;31051;51.540;5.852;2023-08-24T02:11:42;6.0;;;5.4;;
45314;SDS011;31051;51.540;5.852;2023-08-24T02:24:42;6.8;;;5.6;;
45314;SDS011;31051;51.540;5.852;2023-08-24T02:37:41;7.5;;;5.7;;
45314;SDS011;31051;51.540;5.852;2023-08-24T02:50:40;6.4;;;5.6;;
45314;SDS011;31051;51.540;5.852;2023-08-24T03:03:40;8.3;;;6.3;;
45314;SDS011;31051;51.540;5.852;2023-08-24T03:16:39;10.8;;;8.1;;
45314;SDS011;31051;51.540;5.852;2023-08-24T03:29:38;9.6;;;6.6;;
45314;SDS011;31051;51.540;5.852;2023-08-24T03:42:26;11.9;;;9.9;;
45314;SDS011;31051;51.540;5.852;2023-08-24T03:55:15;16.7;;;14.4;;
45314;SDS011;31051;51.540;5.852;2023-08-24T04:08:14;22.5;;;19.8;;
45314;SDS011;31051;51.540;5.852;2023-08-24T04:21:03;20.4;;;18.3;;
45314;SDS011;31051;51.540;5.852;2023-08-24T04:34:01;25.4;;;17.8;;
45314;SDS011;31051;51.540;5.852;2023-08-24T04:46:51;16.9;;;14.9;;
45314;SDS011;31051;51.540;5.852;2023-08-24T04:59:50;13.2;;;11.7;;
45314;SDS011;31051;51.540;5.852;2023-08-24T05:12:49;31.4;;;12.5;;
45314;SDS011;31051;51.540;5.852;2023-08-24T05:25:37;15.4;;;11.0;;
45314;SDS011;31051;51.540;5.852;2023-08-24T05:38:26;12.8;;;11.1;;
45314;SDS011;31051;51.540;5.852;2023-08-24T05:51:26;13.0;;;11.3;;
45314;SDS011;31051;51.540;5.852;2023-08-24T06:04:25;13.2;;;11.9;;
45314;SDS011;31051;51.540;5.852;2023-08-24T06:17:23;13.5;;;12.0;;
45314;SDS011;31051;51.540;5.852;2023-08-24T06:30:13;14.2;;;12.5;;
45314;SDS011;31051;51.540;5.852;2023-08-24T06:43:11;13.7;;;12.3;;
45314;SDS011;31051;51.540;5.852;2023-08-24T07:08:48;11.5;;;10.4;;
45314;SDS011;31051;51.540;5.852;2023-08-24T07:21:37;10.7;;;9.4;;
45314;SDS011;31051;51.540;5.852;2023-08-24T07:34:36;10.8;;;8.0;;
45314;SDS011;31051;51.540;5.852;2023-08-24T07:47:25;9.1;;;8.1;;
45314;SDS011;31051;51.540;5.852;2023-08-24T08:00:23;9.7;;;7.6;;
45314;SDS011;31051;51.540;5.852;2023-08-24T08:13:10;9.5;;;7.2;;
45314;SDS011;31051;51.540;5.852;2023-08-24T08:25:58;8.8;;;6.9;;
45314;SDS011;31051;51.540;5.852;2023-08-24T08:38:45;8.1;;;6.0;;
45314;SDS011;31051;51.540;5.852;2023-08-24T08:51:32;6.2;;;4.6;;
45314;SDS011;31051;51.540;5.852;2023-08-24T09:04:20;7.7;;;4.2;;
45314;SDS011;31051;51.540;5.852;2023-08-24T09:17:07;7.4;;;4.0;;
45314;SDS011;31051;51.540;5.852;2023-08-24T09:29:55;8.3;;;4.1;;
45314;SDS011;31051;51.540;5.852;2023-08-24T09:42:42;6.8;;;3.5;;
45314;SDS011;31051;51.540;5.852;2023-08-24T09:55:30;6.6;;;3.4;;
45314;SDS011;31051;51.540;5.852;2023-08-24T10:08:17;6.1;;;3.2;;
45314;SDS011;31051;51.540;5.852;2023-08-24T10:21:05;6.7;;;3.8;;
45314;SDS011;31051;51.540;5.852;2023-08-24T10:33:52;5.9;;;4.0;;
45314;SDS011;31051;51.540;5.852;2023-08-24T10:46:40;7.4;;;4.5;;
45314;SDS011;31051;51.540;5.852;2023-08-24T10:59:27;6.2;;;4.3;;
45314;SDS011;31051;51.540;5.852;2023-08-24T11:12:14;7.0;;;4.1;;
45314;SDS011;31051;51.540;5.852;2023-08-24T11:25:02;7.5;;;4.5;;
45314;SDS011;31051;51.540;5.852;2023-08-24T11:37:49;7.6;;;4.7;;
45314;SDS011;31051;51.540;5.852;2023-08-24T11:50:37;6.4;;;4.2;;
45314;SDS011;31051;51.540;5.852;2023-08-24T12:03:24;7.7;;;4.7;;
45314;SDS011;31051;51.540;5.852;2023-08-24T12:16:12;7.3;;;5.0;;
45314;SDS011;31051;51.540;5.852;2023-08-24T12:28:59;8.7;;;5.7;;
45314;SDS011;31051;51.540;5.852;2023-08-24T12:41:47;9.0;;;5.8;;
45314;SDS011;31051;51.540;5.852;2023-08-24T12:54:34;9.7;;;6.5;;
45314;SDS011;31051;51.540;5.852;2023-08-24T13:07:21;6.6;;;4.8;;
45314;SDS011;31051;51.540;5.852;2023-08-24T13:20:09;6.5;;;4.6;;
45314;SDS011;31051;51.540;5.852;2023-08-24T13:32:56;7.8;;;5.2;;
45314;SDS011;31051;51.540;5.852;2023-08-24T13:45:43;8.1;;;4.0;;
45314;SDS011;31051;51.540;5.852;2023-08-24T13:58:31;6.9;;;4.1;;
45314;SDS011;31051;51.540;5.852;2023-08-24T14:11:18;7.0;;;4.3;;
45314;SDS011;31051;51.540;5.852;2023-08-24T14:24:07;8.4;;;4.7;;
45314;SDS011;31051;51.540;5.852;2023-08-24T14:37:05;8.1;;;4.9;;
45314;SDS011;31051;51.540;5.852;2023-08-24T14:50:04;8.1;;;5.2;;
45314;SDS011;31051;51.540;5.852;2023-08-24T15:02:52;7.6;;;4.8;;
45314;SDS011;31051;51.540;5.852;2023-08-24T15:15:40;5.6;;;4.1;;
45314;SDS011;31051;51.540;5.852;2023-08-24T15:28:29;7.1;;;4.4;;
45314;SDS011;31051;51.540;5.852;2023-08-24T15:41:18;5.9;;;3.5;;
45314;SDS011;31051;51.540;5.852;2023-08-24T15:54:16;6.9;;;3.9;;
45314;SDS011;31051;51.540;5.852;2023-08-24T16:07:05;4.4;;;2.6;;
45314;SDS011;31051;51.540;5.852;2023-08-24T16:20:04;3.5;;;2.2;;
45314;SDS011;31051;51.540;5.852;2023-08-24T16:33:04;3.8;;;2.1;;
45314;SDS011;31051;51.540;5.852;2023-08-24T16:46:02;3.8;;;2.1;;
45314;SDS011;31051;51.540;5.852;2023-08-24T16:58:51;3.0;;;2.1;;
45314;SDS011;31051;51.540;5.852;2023-08-24T17:11:39;3.6;;;2.0;;
45314;SDS011;31051;51.540;5.852;2023-08-24T17:24:38;3.6;;;1.9;;
45314;SDS011;31051;51.540;5.852;2023-08-24T17:37:26;3.1;;;1.8;;
45314;SDS011;31051;51.540;5.852;2023-08-24T17:50:24;2.8;;;1.8;;
45314;SDS011;31051;51.540;5.852;2023-08-24T18:03:11;3.6;;;2.5;;
45314;SDS011;31051;51.540;5.852;2023-08-24T18:15:58;3.8;;;2.5;;
45314;SDS011;31051;51.540;5.852;2023-08-24T18:28:47;3.6;;;1.7;;
45314;SDS011;31051;51.540;5.852;2023-08-24T18:41:45;3.5;;;2.2;;
45314;SDS011;31051;51.540;5.852;2023-08-24T18:54:34;4.1;;;2.7;;
45314;SDS011;31051;51.540;5.852;2023-08-24T19:07:23;5.4;;;4.2;;
45314;SDS011;31051;51.540;5.852;2023-08-24T19:20:22;4.5;;;3.5;;
45314;SDS011;31051;51.540;5.852;2023-08-24T19:33:22;4.3;;;3.3;;
45314;SDS011;31051;51.540;5.852;2023-08-24T19:46:21;4.8;;;3.7;;
45314;SDS011;31051;51.540;5.852;2023-08-24T19:59:21;5.1;;;3.7;;
45314;SDS011;31051;51.540;5.852;2023-08-24T20:12:19;5.4;;;3.8;;
45314;SDS011;31051;51.540;5.852;2023-08-24T20:25:08;18.1;;;16.4;;
45314;SDS011;31051;51.540;5.852;2023-08-24T20:37:56;9.6;;;8.7;;
45314;SDS011;31051;51.540;5.852;2023-08-24T20:50:45;10.0;;;9.0;;
45314;SDS011;31051;51.540;5.852;2023-08-24T21:03:45;9.6;;;8.7;;
45314;SDS011;31051;51.540;5.852;2023-08-24T21:16:44;7.8;;;7.0;;
45314;SDS011;31051;51.540;5.852;2023-08-24T21:29:43;8.5;;;7.6;;
45314;SDS011;31051;51.540;5.852;2023-08-24T21:42:32;7.7;;;7.0;;
45314;SDS011;31051;51.540;5.852;2023-08-24T21:55:31;8.5;;;7.7;;
45314;SDS011;31051;51.540;5.852;2023-08-24T22:08:19;10.4;;;9.4;;
45314;SDS011;31051;51.540;5.852;2023-08-24T22:21:07;12.1;;;11.0;;
45314;SDS011;31051;51.540;5.852;2023-08-24T22:33:57;9.5;;;8.6;;
45314;SDS011;31051;51.540;5.852;2023-08-24T22:46:55;11.7;;;10.6;;
45314;SDS011;31051;51.540;5.852;2023-08-24T22:59:43;10.7;;;9.6;;
45314;SDS011;31051;51.540;5.852;2023-08-24T23:12:33;10.5;;;9.4;;
45314;SDS011;31051;51.540;5.852;2023-08-24T23:25:32;11.0;;;10.0;;
45314;SDS011;31051;51.540;5.852;2023-08-24T23:38:32;9.1;;;8.3;;
45314;SDS011;31051;51.540;5.852;2023-08-24T23:51:31;10.7;;;9.7;;
